Time;durP1;ratioP1;P1;durP2;ratioP2;P2;SDS_P1;SDS_P2;PMS_P1;PMS_P2;Temp;Humidity;BMP_temperature;BMP_pressure;BME280_temperature;BME280_humidity;BME280_pressure;Samples;Min_cycle;Max_cycle;Signal;HPM_P1;HPM_P2
2023/10/20 00:01:27;;;;;;;1.70;0.80;;;;;;;19.79;54.35;98309.63;16110358;19;131049;-45
2023/10/20 00:06:49;;;;;;;1.50;0.70;;;;;;;19.78;54.31;98300.47;16111878;19;129404;-44
2023/10/20 00:12:12;;;;;;;1.23;0.90;;;;;;;19.76;53.85;98288.06;16110270;19;130685;-43
2023/10/20 00:17:34;;;;;;;1.45;0.80;;;;;;;19.76;54.08;98263.09;16109298;19;131228;-45
2023/10/20 00:22:56;;;;;;;2.30;0.93;;;;;;;19.75;54.08;98255.91;16138154;19;133457;-43
2023/10/20 00:28:19;;;;;;;2.70;1.10;;;;;;;19.73;54.10;98241.53;16142223;19;129287;-42
2023/10/20 00:33:40;;;;;;;2.80;1.05;;;;;;;19.69;53.84;98231.06;16141292;19;131119;-42
2023/10/20 00:39:03;;;;;;;1.75;0.90;;;;;;;19.68;54.35;98223.94;16140485;19;129255;-42
2023/10/20 00:44:24;;;;;;;1.92;0.95;;;;;;;19.66;53.90;98226.19;16141001;19;130658;-49
2023/10/20 00:49:46;;;;;;;3.63;1.20;;;;;;;19.67;53.78;98224.22;16138953;19;131399;-42
2023/10/20 00:55:11;;;;;;;3.83;1.02;;;;;;;19.65;53.78;98213.47;16136748;19;129253;-43
2023/10/20 01:00:33;;;;;;;2.53;1.10;;;;;;;19.65;53.76;98216.22;16141840;19;129896;-40
2023/10/20 01:05:55;;;;;;;1.35;0.90;;;;;;;19.63;53.90;98210.19;16135842;19;130066;-42
2023/10/20 01:11:17;;;;;;;1.73;0.90;;;;;;;19.62;54.17;98203.00;16140426;19;129899;-46
2023/10/20 01:16:39;;;;;;;3.00;1.17;;;;;;;19.61;53.96;98195.81;16139540;19;129731;-42
2023/10/20 01:22:01;;;;;;;4.20;1.10;;;;;;;19.59;53.85;98200.84;16140448;19;129714;-44
2023/10/20 01:27:23;;;;;;;1.77;0.98;;;;;;;19.57;53.94;98183.72;16134975;19;132078;-42
2023/10/20 01:32:45;;;;;;;1.98;0.98;;;;;;;19.57;53.93;98172.63;16123774;19;130495;-42
2023/10/20 01:38:07;;;;;;;3.95;1.00;;;;;;;19.57;53.90;98158.75;16119532;19;129693;-43
2023/10/20 01:43:29;;;;;;;1.83;1.30;;;;;;;19.55;53.63;98138.88;16118962;19;131325;-44
2023/10/20 01:48:51;;;;;;;1.67;1.00;;;;;;;19.54;53.83;98134.47;16118441;19;131348;-42
2023/10/20 01:54:13;;;;;;;3.63;1.60;;;;;;;19.53;53.56;98132.81;16119493;19;130713;-43
2023/10/20 01:59:35;;;;;;;1.95;1.02;;;;;;;19.52;54.02;98117.31;16115558;19;130060;-42
2023/10/20 02:04:57;;;;;;;2.22;1.20;;;;;;;19.52;53.84;98109.00;16122195;19;130336;-43
2023/10/20 02:10:19;;;;;;;1.98;1.00;;;;;;;19.51;53.79;98096.28;16119737;19;129795;-42
2023/10/20 02:15:47;;;;;;;8.05;1.23;;;;;;;19.51;53.67;98090.72;16119089;19;129856;-42
2023/10/20 02:21:09;;;;;;;3.10;1.10;;;;;;;19.49;53.77;98076.38;16114693;19;129563;-42
2023/10/20 02:26:31;;;;;;;1.67;1.00;;;;;;;19.48;53.77;98066.41;16117776;19;131054;-43
2023/10/20 02:31:53;;;;;;;1.50;1.20;;;;;;;19.48;53.57;98052.56;16118504;19;129349;-43
2023/10/20 02:37:15;;;;;;;3.10;1.10;;;;;;;19.47;54.02;98035.09;16119895;19;129447;-43
2023/10/20 02:42:37;;;;;;;2.05;1.10;;;;;;;19.47;53.83;98028.72;16119784;19;130069;-43
2023/10/20 02:47:59;;;;;;;1.30;1.10;;;;;;;19.46;54.01;98013.22;16118219;19;129757;-43
2023/10/20 02:53:21;;;;;;;1.75;1.20;;;;;;;19.44;53.98;97996.13;16117259;19;129996;-42
2023/10/20 02:58:44;;;;;;;2.38;1.30;;;;;;;19.43;53.56;97994.50;16115677;19;129340;-45
2023/10/20 03:04:06;;;;;;;1.60;1.30;;;;;;;19.42;53.75;98009.50;16113056;19;129758;-42
2023/10/20 03:09:28;;;;;;;2.85;1.25;;;;;;;19.41;53.69;97972.63;16115525;19;129744;-42
2023/10/20 03:14:50;;;;;;;1.98;1.17;;;;;;;19.41;53.91;97955.19;16115807;19;130477;-43
2023/10/20 03:20:17;;;;;;;2.83;1.40;;;;;;;19.40;53.85;97950.78;16112322;19;129523;-42
2023/10/20 03:25:40;;;;;;;1.67;1.20;;;;;;;19.38;53.89;97951.13;16117087;19;129740;-44
2023/10/20 03:31:02;;;;;;;2.30;1.42;;;;;;;19.38;53.44;97954.69;16113924;19;129826;-43
2023/10/20 03:36:25;;;;;;;3.92;1.30;;;;;;;19.37;53.59;97935.63;16114772;19;129687;-42
2023/10/20 03:41:49;;;;;;;3.63;1.50;;;;;;;19.36;53.46;97936.75;16113038;19;130388;-42
2023/10/20 03:47:13;;;;;;;1.77;1.30;;;;;;;19.35;53.76;97933.16;16110516;19;131871;-42
2023/10/20 03:52:35;;;;;;;1.77;1.35;;;;;;;19.34;53.90;97914.09;16111803;19;130062;-44
2023/10/20 03:57:57;;;;;;;1.52;1.17;;;;;;;19.33;53.39;97907.72;16112466;19;129744;-42
2023/10/20 04:03:19;;;;;;;1.40;1.15;;;;;;;19.32;53.57;97889.44;16110088;19;131464;-41
2023/10/20 04:08:42;;;;;;;2.25;0.90;;;;;;;19.31;53.57;97882.31;16108012;19;131047;-41
2023/10/20 04:14:07;;;;;;;2.45;1.20;;;;;;;19.32;53.62;97861.72;16112498;19;129646;-43
2023/10/20 04:19:29;;;;;;;1.23;1.08;;;;;;;19.30;53.40;97866.81;16110629;19;129542;-42
2023/10/20 04:24:51;;;;;;;1.15;1.00;;;;;;;19.30;53.58;97852.94;16108948;19;131287;-43
2023/10/20 04:52:59;;;;;;;2.15;1.20;;;;;;;19.26;53.57;97782.66;16109463;19;129403;-43
2023/10/20 05:04:40;;;;;;;1.33;0.98;;;;;;;19.24;53.52;97765.53;16106656;19;129830;-41
2023/10/20 05:09:54;;;;;;;2.33;0.98;;;;;;;19.23;53.70;97741.75;16119642;19;130010;-42
2023/10/20 05:15:17;;;;;;;1.42;1.10;;;;;;;19.25;53.41;97752.53;16118385;19;131795;-45
2023/10/20 05:20:40;;;;;;;2.78;1.00;;;;;;;19.22;53.42;97763.13;16125429;19;130908;-41
2023/10/20 05:26:02;;;;;;;1.35;1.08;;;;;;;19.23;53.59;97763.91;16121396;19;129530;-42
2023/10/20 05:31:26;;;;;;;1.13;1.02;;;;;;;19.20;53.57;97747.94;16112847;19;130310;-45
2023/10/20 05:36:49;;;;;;;3.58;1.00;;;;;;;19.18;54.07;97739.13;16118130;19;130271;-41
2023/10/20 05:42:11;;;;;;;2.55;1.30;;;;;;;19.24;53.69;97735.06;16117606;19;129857;-45
2023/10/20 05:47:33;;;;;;;1.88;1.00;;;;;;;19.37;53.73;97717.44;16114850;19;131377;-44
2023/10/20 05:52:55;;;;;;;1.85;1.10;;;;;;;19.55;53.12;97713.78;16112422;19;129733;-49
2023/10/20 05:58:20;;;;;;;4.77;1.20;;;;;;;19.69;52.85;97728.28;16115502;19;130566;-45
2023/10/20 06:03:42;;;;;;;4.32;1.33;;;;;;;19.80;52.69;97726.75;16119593;19;130141;-47
2023/10/20 06:09:06;;;;;;;4.88;1.15;;;;;;;19.90;52.58;97708.13;16118407;19;132006;-42
2023/10/20 06:14:28;;;;;;;2.33;1.40;;;;;;;19.97;52.26;97703.69;16114427;19;129482;-45
2023/10/20 06:19:50;;;;;;;2.72;1.40;;;;;;;20.02;52.21;97715.78;16115466;19;129453;-46
2023/10/20 06:25:12;;;;;;;3.60;1.20;;;;;;;20.03;52.64;97714.63;16115777;19;130517;-44
2023/10/20 06:30:42;;;;;;;3.22;0.98;;;;;;;19.99;52.49;97698.66;16119266;19;130258;-42
2023/10/20 06:36:11;;;;;;;1.60;1.00;;;;;;;19.97;52.85;97700.91;16115854;19;129748;-41
2023/10/20 06:41:34;;;;;;;2.47;1.15;;;;;;;19.94;52.42;97689.66;16114886;19;130215;-41
2023/10/20 06:46:58;;;;;;;2.58;1.00;;;;;;;19.88;52.49;97702.09;16115635;19;133537;-45
2023/10/20 06:52:19;;;;;;;2.85;1.20;;;;;;;19.83;53.00;97697.53;16114948;19;129636;-43
2023/10/20 06:57:41;;;;;;;4.55;1.33;;;;;;;19.78;52.79;97694.97;16115900;19;132611;-41
2023/10/20 07:03:04;;;;;;;4.82;1.13;;;;;;;19.74;52.74;97685.66;16112689;19;130580;-42
2023/10/20 07:08:27;;;;;;;2.35;1.08;;;;;;;19.68;52.72;97683.09;16117958;19;129724;-42
2023/10/20 07:13:48;;;;;;;2.83;1.20;;;;;;;19.65;52.91;97696.78;16112726;19;130121;-41
2023/10/20 07:19:10;;;;;;;3.30;1.00;;;;;;;19.63;53.30;97679.69;16109227;19;130219;-41
2023/10/20 07:24:33;;;;;;;1.73;0.90;;;;;;;19.61;52.88;97685.56;16115902;19;131307;-42
2023/10/20 07:29:57;;;;;;;2.33;1.08;;;;;;;19.55;53.03;97664.72;16113472;19;130434;-43
2023/10/20 07:35:19;;;;;;;3.33;1.00;;;;;;;19.57;53.19;97664.38;16113946;19;129514;-42
2023/10/20 07:40:41;;;;;;;5.85;1.17;;;;;;;19.55;53.36;97650.84;16110856;19;130252;-43
2023/10/20 07:46:03;;;;;;;2.47;0.80;;;;;;;19.56;53.12;97638.63;16109676;19;129976;-42
2023/10/20 07:51:25;;;;;;;3.00;1.00;;;;;;;19.58;52.99;97638.28;16112007;19;129682;-42
2023/10/20 07:56:47;;;;;;;2.40;0.75;;;;;;;19.63;53.24;97643.66;16112936;19;129581;-44
2023/10/20 08:02:09;;;;;;;8.45;1.00;;;;;;;19.70;53.21;97655.03;16110529;19;129852;-43
2023/10/20 08:07:31;;;;;;;1.25;0.80;;;;;;;19.76;53.30;97648.13;16110340;19;129610;-42
2023/10/20 08:12:54;;;;;;;2.35;0.90;;;;;;;19.83;52.81;97653.16;16111551;19;129576;-45
2023/10/20 08:18:16;;;;;;;2.03;0.88;;;;;;;19.88;52.93;97647.44;16107815;19;129664;-43
2023/10/20 08:23:38;;;;;;;0.93;0.60;;;;;;;19.94;52.62;97643.31;16111613;19;129506;-44
2023/10/20 08:29:00;;;;;;;2.58;0.80;;;;;;;19.98;52.63;97643.47;16108514;19;129707;-45
2023/10/20 08:34:23;;;;;;;1.55;0.68;;;;;;;19.99;52.39;97651.47;16109597;19;130965;-42
2023/10/20 08:39:45;;;;;;;1.00;0.57;;;;;;;19.98;52.88;97638.72;16111038;19;128809;-43
2023/10/20 08:45:10;;;;;;;1.10;0.60;;;;;;;19.97;52.50;97637.09;16127546;19;129834;-43
2023/10/20 08:50:33;;;;;;;;;;;;;;;19.95;52.49;97650.47;16122264;19;129587;-45
2023/10/20 08:55:55;;;;;;;2.28;0.75;;;;;;;19.99;52.66;97639.53;16127741;19;129534;-42
2023/10/20 09:01:17;;;;;;;1.67;0.52;;;;;;;20.00;52.67;97635.63;16125169;19;130770;-42
2023/10/20 09:06:39;;;;;;;2.78;0.80;;;;;;;20.03;52.64;97632.19;16125920;19;129626;-44
2023/10/20 09:12:01;;;;;;;3.38;0.77;;;;;;;20.07;52.34;97624.81;16123466;19;129604;-42
2023/10/20 09:17:23;;;;;;;1.85;0.75;;;;;;;20.10;52.23;97626.94;16122854;19;130298;-44
2023/10/20 09:22:45;;;;;;;1.98;0.60;;;;;;;20.13;52.60;97633.75;16122016;19;131684;-44
2023/10/20 09:28:08;;;;;;;0.70;0.60;;;;;;;20.12;52.60;97632.94;16122341;19;130166;-43
2023/10/20 09:33:30;;;;;;;1.75;0.50;;;;;;;20.11;52.54;97630.50;16123357;19;130549;-43
2023/10/20 09:38:56;;;;;;;1.95;0.80;;;;;;;20.09;52.47;97625.31;16120342;19;130832;-43
2023/10/20 09:44:24;;;;;;;1.48;0.60;;;;;;;20.10;52.34;97634.44;16120059;19;130489;-43
2023/10/20 09:49:47;;;;;;;2.08;0.60;;;;;;;20.11;52.44;97631.34;16121634;19;130962;-44
2023/10/20 09:55:11;;;;;;;0.87;0.57;;;;;;;20.13;52.53;97619.88;16116255;19;131859;-43
2023/10/20 10:00:36;;;;;;;1.15;0.50;;;;;;;20.17;52.12;97617.25;16120942;19;129506;-43
2023/10/20 10:06:00;;;;;;;1.37;0.50;;;;;;;20.20;52.45;97605.47;16121348;19;131215;-43
2023/10/20 10:11:31;;;;;;;2.85;0.70;;;;;;;20.24;52.42;97598.91;16121378;19;131008;-43
2023/10/20 10:16:56;;;;;;;1.98;0.60;;;;;;;20.22;52.06;97598.44;16120236;19;130189;-44
2023/10/20 10:22:28;;;;;;;1.20;0.60;;;;;;;20.21;51.94;97602.34;16118392;19;130702;-44
2023/10/20 10:27:50;;;;;;;0.95;0.50;;;;;;;20.18;52.22;97608.59;16118531;19;129356;-45
2023/10/20 10:33:12;;;;;;;0.57;0.40;;;;;;;20.18;52.40;97603.06;16116944;19;129295;-44
2023/10/20 10:38:44;;;;;;;1.35;0.50;;;;;;;20.21;52.29;97607.09;16118763;19;130966;-43
2023/10/20 10:44:08;;;;;;;0.70;0.50;;;;;;;20.21;52.11;97599.56;16118085;19;130122;-42
2023/10/20 10:49:33;;;;;;;0.80;0.45;;;;;;;20.26;52.42;97595.78;16118493;19;130651;-42
2023/10/20 10:54:57;;;;;;;1.00;0.50;;;;;;;20.26;52.16;97588.28;16115072;19;129609;-45
2023/10/20 11:00:21;;;;;;;0.65;0.40;;;;;;;20.29;51.80;97593.16;16119149;19;129619;-43
2023/10/20 11:05:44;;;;;;;0.68;0.50;;;;;;;20.30;51.89;97582.84;16118190;19;129650;-43
2023/10/20 11:11:05;;;;;;;0.50;0.40;;;;;;;20.29;51.92;97592.34;16119762;19;129755;-44
2023/10/20 11:16:28;;;;;;;0.30;0.30;;;;;;;20.25;51.81;97597.75;16115126;19;130379;-42
2023/10/20 11:21:51;;;;;;;0.40;0.30;;;;;;;20.22;52.10;97592.88;16113111;19;129997;-43
2023/10/20 11:27:13;;;;;;;0.40;0.30;;;;;;;20.22;52.25;97590.09;16114325;19;131084;-45
2023/10/20 11:32:35;;;;;;;0.45;0.30;;;;;;;20.24;51.73;97585.03;16116867;19;129827;-45
2023/10/20 11:37:58;;;;;;;0.35;0.30;;;;;;;20.27;51.89;97584.34;16113095;19;134897;-43
2023/10/20 11:43:20;;;;;;;0.57;0.30;;;;;;;20.30;51.63;97591.19;16112434;19;130080;-41
2023/10/20 11:48:42;;;;;;;0.43;0.38;;;;;;;20.34;51.52;97594.09;16115958;19;131200;-43
2023/10/20 11:54:05;;;;;;;1.50;0.30;;;;;;;20.35;51.84;97591.00;16112787;19;130337;-43
2023/10/20 11:59:27;;;;;;;1.67;0.50;;;;;;;20.36;51.69;97598.19;16112767;19;130867;-42
2023/10/20 12:04:49;;;;;;;1.02;0.32;;;;;;;20.35;51.49;97602.09;16113422;19;130056;-43
2023/10/20 12:10:12;;;;;;;0.73;0.32;;;;;;;20.31;52.00;97611.44;16112462;19;130281;-43
2023/10/20 12:15:36;;;;;;;0.30;0.30;;;;;;;20.31;51.87;97625.31;16109501;19;130447;-43
2023/10/20 12:20:58;;;;;;;0.57;0.25;;;;;;;20.32;51.47;97640.81;16111324;19;130241;-44
2023/10/20 12:26:20;;;;;;;0.20;0.20;;;;;;;20.33;51.78;97648.81;16113004;19;129544;-42
2023/10/20 12:31:42;;;;;;;0.82;0.40;;;;;;;20.36;51.58;97659.25;16109368;19;130976;-43
2023/10/20 12:37:05;;;;;;;0.75;0.30;;;;;;;20.38;51.83;97673.59;16109079;19;129447;-44
2023/10/20 12:42:27;;;;;;;0.75;0.35;;;;;;;20.41;51.37;97677.66;16109852;19;130575;-44
2023/10/20 12:47:49;;;;;;;0.20;0.20;;;;;;;20.40;51.25;97682.38;16105328;19;129732;-43
2023/10/20 12:53:12;;;;;;;0.95;0.20;;;;;;;20.39;51.63;97685.50;16106896;19;130318;-43
2023/10/20 12:58:38;;;;;;;0.50;0.20;;;;;;;20.36;51.68;97695.34;16110048;19;130345;-43
2023/10/20 13:04:00;;;;;;;;;;;;;;;20.32;51.31;97701.88;16108539;19;130258;-44
2023/10/20 13:09:23;;;;;;;0.20;0.20;;;;;;;20.34;51.70;97707.91;16107918;19;129458;-42
2023/10/20 13:14:45;;;;;;;0.20;0.20;;;;;;;20.35;51.42;97723.41;16110174;19;129739;-42
2023/10/20 13:20:08;;;;;;;0.20;0.20;;;;;;;20.35;51.56;97726.19;16106648;19;129496;-42
2023/10/20 13:25:30;;;;;;;0.50;0.30;;;;;;;20.38;51.25;97733.84;16106511;19;130973;-42
2023/10/20 13:31:14;;;;;;;0.30;0.20;;;;;;;20.41;51.03;97733.19;16116869;19;130948;-45
2023/10/20 13:36:37;;;;;;;0.82;0.30;;;;;;;20.32;50.96;97740.75;16113185;19;131375;-44
2023/10/20 13:41:59;;;;;;;3.72;0.75;;;;;;;20.27;50.87;97742.56;16117723;19;130027;-41
2023/10/20 13:47:21;;;;;;;5.78;0.70;;;;;;;20.22;50.52;97737.22;16114030;19;129870;-44
2023/10/20 13:52:44;;;;;;;4.55;0.63;;;;;;;20.22;51.07;97742.75;16118226;19;130355;-40
2023/10/20 13:58:06;;;;;;;4.63;0.75;;;;;;;20.25;50.99;97747.66;16112828;19;129604;-42
2023/10/20 14:03:29;;;;;;;5.22;0.95;;;;;;;20.30;50.58;97743.88;16115240;19;130566;-41
2023/10/20 14:08:51;;;;;;;9.43;0.93;;;;;;;20.35;50.67;97756.72;16116638;19;130948;-43
2023/10/20 14:14:13;;;;;;;4.82;0.75;;;;;;;20.38;50.47;97745.75;16117006;19;130417;-43
2023/10/20 14:19:35;;;;;;;7.15;0.93;;;;;;;20.44;50.44;97749.16;16119495;19;130125;-42
2023/10/20 14:24:58;;;;;;;3.47;0.68;;;;;;;20.48;50.38;97774.31;16115218;19;130298;-43
2023/10/20 14:30:20;;;;;;;2.60;0.70;;;;;;;20.49;50.31;97762.06;16117068;19;129853;-42
2023/10/20 14:35:42;;;;;;;1.95;0.50;;;;;;;20.45;50.40;97768.28;16119851;19;130835;-42
2023/10/20 14:41:06;;;;;;;2.60;0.70;;;;;;;20.44;50.15;97760.25;16109585;19;130549;-43
2023/10/20 14:46:29;;;;;;;2.50;0.40;;;;;;;20.41;50.56;97763.75;16113669;19;129382;-43
2023/10/20 14:51:51;;;;;;;5.20;0.82;;;;;;;20.44;50.36;97768.59;16115828;19;129693;-43
2023/10/20 14:57:13;;;;;;;4.18;0.70;;;;;;;20.46;50.07;97769.06;16116877;19;129724;-41
2023/10/20 15:02:35;;;;;;;1.73;0.57;;;;;;;20.48;50.26;97777.91;16112192;19;131033;-43
2023/10/20 15:07:57;;;;;;;2.25;0.70;;;;;;;20.51;50.09;97777.22;16111256;19;130308;-41
2023/10/20 15:13:20;;;;;;;2.00;0.60;;;;;;;20.52;49.75;97773.31;16111372;19;130392;-42
2023/10/20 15:18:43;;;;;;;3.47;0.60;;;;;;;20.53;50.02;97776.88;16108121;19;129585;-42
2023/10/20 15:24:06;;;;;;;3.97;0.73;;;;;;;20.54;50.12;97781.28;16109236;19;130333;-42
2023/10/20 15:29:28;;;;;;;1.90;0.73;;;;;;;20.52;50.21;97787.19;16107502;19;131583;-43
2023/10/20 15:34:50;;;;;;;4.50;1.05;;;;;;;20.54;50.19;97789.63;16108244;19;131964;-41
2023/10/20 15:40:12;;;;;;;13.77;1.52;;;;;;;20.55;49.84;97791.25;16105937;19;129811;-43
2023/10/20 15:45:39;;;;;;;8.65;1.90;;;;;;;20.56;49.99;97796.47;16111024;19;130721;-43
2023/10/20 15:51:04;;;;;;;10.00;1.70;;;;;;;20.55;50.27;97794.84;16110173;19;129800;-44
2023/10/20 15:56:27;;;;;;;3.67;1.38;;;;;;;20.53;50.08;97799.94;16110580;19;129884;-41
2023/10/20 16:01:49;;;;;;;3.90;1.15;;;;;;;20.51;50.46;97807.78;16109344;19;130518;-45
2023/10/20 16:07:11;;;;;;;4.45;1.50;;;;;;;20.51;50.53;97816.09;16109630;19;131545;-43
2023/10/20 16:12:33;;;;;;;3.17;1.30;;;;;;;20.54;50.58;97814.63;16107564;19;131150;-41
2023/10/20 16:17:56;;;;;;;4.53;1.55;;;;;;;20.56;50.61;97823.44;16108707;19;131276;-48
2023/10/20 16:23:18;;;;;;;6.40;1.38;;;;;;;20.57;50.76;97833.38;16108834;19;134236;-42
2023/10/20 16:28:40;;;;;;;3.78;1.10;;;;;;;20.59;50.48;97829.13;16111704;19;129843;-43
2023/10/20 16:34:02;;;;;;;4.05;1.33;;;;;;;20.60;50.70;97841.88;16110143;19;131237;-41
2023/10/20 16:39:24;;;;;;;4.40;1.17;;;;;;;20.60;50.75;97852.97;16107489;19;129983;-42
2023/10/20 16:44:46;;;;;;;4.93;1.23;;;;;;;20.56;50.57;97846.44;16106573;19;130911;-42
2023/10/20 16:50:08;;;;;;;6.15;1.10;;;;;;;20.53;50.82;97852.69;16108039;19;130486;-44
2023/10/20 16:55:34;;;;;;;3.20;0.88;;;;;;;20.51;50.46;97860.53;16105234;19;129461;-43
2023/10/20 17:01:03;;;;;;;5.10;1.30;;;;;;;20.50;50.70;97860.84;16110251;19;130218;-42
2023/10/20 17:06:25;;;;;;;4.60;0.90;;;;;;;20.49;51.02;97865.59;16122171;19;129696;-41
2023/10/20 17:11:48;;;;;;;8.55;1.08;;;;;;;20.53;50.64;97866.59;16123112;19;129834;-40
2023/10/20 17:17:09;;;;;;;9.82;1.08;;;;;;;20.59;50.88;97876.34;16122244;19;130140;-42
2023/10/20 17:22:31;;;;;;;9.18;1.10;;;;;;;20.65;50.62;97882.50;16118402;19;129668;-41
2023/10/20 17:27:53;;;;;;;11.40;1.10;;;;;;;20.71;50.83;97885.91;16118740;19;130800;-42
2023/10/20 17:33:16;;;;;;;14.85;1.40;;;;;;;20.74;50.66;97885.25;16118092;19;131297;-41
2023/10/20 17:38:38;;;;;;;14.88;1.23;;;;;;;20.80;50.51;97885.91;16121488;19;130723;-44
2023/10/20 17:44:00;;;;;;;20.05;1.70;;;;;;;20.84;50.45;97884.91;16123232;19;132023;-41
2023/10/20 17:49:22;;;;;;;21.77;1.60;;;;;;;20.89;50.28;97897.78;16123439;19;131039;-41
2023/10/20 17:54:44;;;;;;;6.35;1.25;;;;;;;20.93;50.29;97895.16;16121317;19;129418;-43
2023/10/20 18:00:11;;;;;;;10.40;1.08;;;;;;;20.97;50.58;97896.94;16117772;19;131115;-41
2023/10/20 18:05:33;;;;;;;9.20;1.10;;;;;;;20.98;50.26;97901.34;16114639;19;129583;-42
2023/10/20 18:10:56;;;;;;;7.80;1.35;;;;;;;20.97;50.16;97905.28;16117291;19;130241;-43
2023/10/20 18:16:20;;;;;;;11.02;1.33;;;;;;;20.96;50.41;97905.59;16113034;19;131571;-40
2023/10/20 18:21:42;;;;;;;13.90;1.73;;;;;;;20.98;50.24;97906.06;16118233;19;130853;-45
2023/10/20 18:27:04;;;;;;;21.13;2.08;;;;;;;21.04;49.95;97910.31;16118476;19;129308;-44
2023/10/20 18:32:26;;;;;;;21.60;1.90;;;;;;;21.12;50.13;97923.31;16120981;19;130210;-48
2023/10/20 18:37:48;;;;;;;16.50;1.48;;;;;;;21.16;50.33;97915.97;16118902;19;130224;-47
2023/10/20 18:43:10;;;;;;;26.58;2.38;;;;;;;21.18;50.53;97926.72;16119871;19;130219;-45
2023/10/20 18:48:33;;;;;;;30.70;2.88;;;;;;;21.18;50.40;97935.06;16118965;19;129957;-45
2023/10/20 18:53:55;;;;;;;35.33;2.58;;;;;;;21.15;50.31;97938.50;16116477;19;129047;-44
2023/10/20 18:59:17;;;;;;;23.30;2.53;;;;;;;21.12;50.64;97940.00;16117567;19;130091;-43
2023/10/20 19:04:39;;;;;;;25.77;2.20;;;;;;;21.08;50.48;97944.59;16118667;19;129620;-47
2023/10/20 19:10:02;;;;;;;22.20;1.80;;;;;;;21.02;50.79;97952.31;16117405;19;131291;-44
2023/10/20 19:15:24;;;;;;;14.85;1.67;;;;;;;20.98;50.91;97968.03;16115285;19;129866;-46
2023/10/20 19:20:46;;;;;;;30.80;3.03;;;;;;;20.90;51.01;97966.94;16116399;19;129837;-44
2023/10/20 19:26:13;;;;;;;17.98;1.85;;;;;;;20.87;51.20;97972.31;16114804;19;129799;-42
2023/10/20 19:31:35;;;;;;;19.40;1.83;;;;;;;20.84;51.06;97979.38;16114630;19;129529;-42
2023/10/20 19:36:57;;;;;;;25.63;2.30;;;;;;;20.78;51.38;97994.59;16112352;19;130436;-44
2023/10/20 19:42:20;;;;;;;24.67;2.05;;;;;;;20.73;51.38;98000.31;16108012;19;129283;-45
2023/10/20 19:47:44;;;;;;;27.35;2.47;;;;;;;20.70;51.40;98006.50;16107223;19;129486;-40
2023/10/20 19:53:07;;;;;;;19.98;2.15;;;;;;;20.69;51.31;98016.81;16101541;19;130758;-43
2023/10/20 19:58:29;;;;;;;14.93;2.17;;;;;;;20.67;51.69;98021.88;16112686;19;130389;-43
2023/10/20 20:03:51;;;;;;;15.35;2.08;;;;;;;20.65;51.51;98031.72;16107633;19;130379;-44
2023/10/20 20:09:13;;;;;;;24.85;2.05;;;;;;;20.63;51.70;98040.34;16109848;19;131267;-42
2023/10/20 20:14:35;;;;;;;15.27;1.63;;;;;;;20.60;51.54;98046.59;16110896;19;129655;-45
2023/10/20 20:19:57;;;;;;;10.70;1.52;;;;;;;20.60;51.10;98058.50;16108883;19;130639;-42
2023/10/20 20:25:18;;;;;;;16.60;2.47;;;;;;;20.58;51.39;98060.78;16103585;19;130057;-44
2023/10/20 20:30:40;;;;;;;20.27;2.08;;;;;;;20.52;51.45;98073.22;16110336;19;131788;-43
2023/10/20 20:36:04;;;;;;;22.95;2.15;;;;;;;20.49;51.81;98079.44;16097726;19;130941;-44
2023/10/20 20:41:26;;;;;;;12.20;1.90;;;;;;;20.44;51.69;98072.09;16113868;19;130054;-43
2023/10/20 20:46:48;;;;;;;16.92;1.45;;;;;;;20.40;51.58;98075.84;16116824;19;131208;-41
2023/10/20 20:52:11;;;;;;;16.52;1.83;;;;;;;20.37;51.28;98090.38;16120061;19;131076;-42
2023/10/20 20:57:33;;;;;;;14.85;1.55;;;;;;;20.33;51.75;98097.72;16122553;19;131071;-44
2023/10/20 21:02:55;;;;;;;9.40;1.25;;;;;;;20.28;51.61;98096.78;16120165;19;130259;-43
2023/10/20 21:08:17;;;;;;;11.05;1.25;;;;;;;20.26;51.70;98107.38;16122675;19;130447;-42
2023/10/20 21:13:41;;;;;;;10.15;1.95;;;;;;;20.21;51.47;98101.97;16127072;19;131609;-42
2023/10/20 21:19:03;;;;;;;9.73;1.38;;;;;;;20.19;51.53;98120.91;16121160;19;129789;-42
2023/10/20 21:24:25;;;;;;;8.15;1.42;;;;;;;20.17;51.29;98131.53;16123455;19;130097;-43
2023/10/20 21:29:48;;;;;;;10.45;1.58;;;;;;;20.15;51.32;98131.03;16125547;19;129474;-41
2023/10/20 21:35:10;;;;;;;7.47;1.35;;;;;;;20.14;51.22;98123.88;16121147;19;129430;-42
2023/10/20 21:40:32;;;;;;;7.75;0.98;;;;;;;20.13;51.42;98125.00;16121734;19;130096;-42
2023/10/20 21:45:55;;;;;;;13.00;1.33;;;;;;;20.12;51.11;98137.25;16117759;19;129357;-45
2023/10/20 21:51:17;;;;;;;7.35;1.52;;;;;;;20.11;51.39;98141.16;16117206;19;129432;-42
2023/10/20 21:56:39;;;;;;;6.22;1.25;;;;;;;20.08;51.55;98136.25;16121357;19;129644;-45
2023/10/20 22:02:01;;;;;;;5.07;1.20;;;;;;;20.07;51.14;98142.94;16121018;19;130987;-42
2023/10/20 22:07:30;;;;;;;9.02;1.40;;;;;;;20.05;51.19;98148.00;16118305;19;130219;-43
2023/10/20 22:12:52;;;;;;;5.25;1.25;;;;;;;20.04;51.62;98146.38;16118075;19;129391;-43
2023/10/20 22:18:14;;;;;;;5.40;0.90;;;;;;;20.02;51.20;98160.56;16113363;19;130681;-44
2023/10/20 22:23:36;;;;;;;8.85;1.35;;;;;;;19.99;51.17;98156.47;16120415;19;130660;-44
2023/10/20 22:28:58;;;;;;;7.95;1.00;;;;;;;20.00;51.21;98162.84;16120040;19;135344;-45
2023/10/20 22:34:20;;;;;;;4.68;1.20;;;;;;;19.99;51.54;98173.13;16118265;19;130172;-44
2023/10/20 22:39:42;;;;;;;8.57;1.23;;;;;;;19.97;51.49;98172.59;16115224;19;130166;-46
2023/10/20 22:45:05;;;;;;;6.85;1.30;;;;;;;19.97;51.09;98169.81;16117345;19;130256;-43
2023/10/20 22:50:27;;;;;;;5.35;0.80;;;;;;;19.96;51.25;98184.03;16116059;19;131139;-45
2023/10/20 22:55:49;;;;;;;5.95;0.70;;;;;;;19.93;51.42;98184.66;16108932;19;130828;-41
2023/10/20 23:01:11;;;;;;;2.03;0.80;;;;;;;19.93;50.96;98185.50;16112055;19;130170;-41
2023/10/20 23:06:33;;;;;;;3.47;0.80;;;;;;;19.93;51.23;98193.81;16110221;19;130319;-44
2023/10/20 23:11:56;;;;;;;4.00;1.20;;;;;;;19.89;50.98;98189.22;16114447;19;131105;-46
2023/10/20 23:17:18;;;;;;;4.47;0.70;;;;;;;19.88;50.94;98204.25;16109370;19;129761;-44
2023/10/20 23:22:40;;;;;;;7.07;1.23;;;;;;;19.86;50.98;98204.56;16115945;19;131374;-45
2023/10/20 23:28:05;;;;;;;9.57;0.88;;;;;;;19.86;50.97;98214.84;16112556;19;129579;-43
2023/10/20 23:33:27;;;;;;;3.70;1.08;;;;;;;19.84;50.93;98226.25;16111425;19;131230;-44
2023/10/20 23:38:49;;;;;;;3.60;0.68;;;;;;;19.82;51.39;98222.97;16112197;19;130458;-45
2023/10/20 23:44:11;;;;;;;5.18;0.85;;;;;;;19.82;51.27;98234.91;16111335;19;131267;-46
2023/10/20 23:49:37;;;;;;;4.57;0.82;;;;;;;19.82;51.10;98247.94;16110244;19;130241;-44
2023/10/20 23:54:59;;;;;;;3.33;0.90;;;;;;;19.80;51.23;98239.94;16112626;19;130617;-44
